createdAt,value
2022-09-14T00:01:31.601Z,99525.41
2022-09-14T00:05:37.586Z,99531.13
2022-09-14T00:09:39.762Z,99529.28
2022-09-14T00:13:46.844Z,99526.78
2022-09-14T00:17:49.011Z,99508.94
2022-09-14T00:21:59.350Z,99503.94
2022-09-14T00:26:07.289Z,99496.97
2022-09-14T00:30:10.325Z,99506.22
2022-09-14T00:34:16.843Z,99509.63
2022-09-14T00:38:18.986Z,99507.81
2022-09-14T00:42:21.245Z,99499.22
2022-09-14T00:46:25.607Z,99497.56
2022-09-14T00:50:29.044Z,99495.06
2022-09-14T00:54:31.945Z,99499.13
2022-09-14T00:58:34.005Z,99493.81
2022-09-14T01:02:36.842Z,99498.56
2022-09-14T01:07:07.162Z,99500.34
2022-09-14T01:11:31.365Z,99498.41
2022-09-14T01:16:05.713Z,99509.44
2022-09-14T01:20:14.416Z,99516.69
2022-09-14T01:24:36.197Z,99515.19
2022-09-14T01:28:51.121Z,99513.56
2022-09-14T01:33:12.278Z,99505.22
2022-09-14T01:37:39.262Z,99510.50
2022-09-14T01:41:43.988Z,99511.63
2022-09-14T01:46:10.632Z,99509.41
2022-09-14T01:50:39.005Z,99492.72
2022-09-14T01:54:46.310Z,99491.16
2022-09-14T01:58:58.138Z,99491.44
2022-09-14T02:03:43.259Z,99490.72
2022-09-14T02:07:45.791Z,99489.19
2022-09-14T02:12:08.377Z,99478.50
2022-09-14T02:16:10.822Z,99491.41
2022-09-14T02:20:29.043Z,99486.28
2022-09-14T02:24:31.442Z,99493.13
2022-09-14T02:28:33.764Z,99492.56
2022-09-14T02:32:35.638Z,99480.06
2022-09-14T02:37:00.838Z,99477.97
2022-09-14T02:41:26.808Z,99480.75
2022-09-14T02:45:51.850Z,99485.06
2022-09-14T02:50:30.139Z,99486.03
2022-09-14T02:55:04.632Z,99488.53
2022-09-14T02:59:06.685Z,99487.97
2022-09-14T03:03:11.243Z,99479.91
2022-09-14T03:07:13.262Z,99482.13
2022-09-14T03:11:16.078Z,99476.28
2022-09-14T03:15:18.198Z,99468.47
2022-09-14T03:19:20.570Z,99484.63
2022-09-14T03:23:22.556Z,99493.69
2022-09-14T03:27:24.881Z,99494.63
2022-09-14T03:31:27.679Z,99484.09
2022-09-14T03:35:31.610Z,99489.19
2022-09-14T03:39:33.777Z,99472.81
2022-09-14T03:43:36.145Z,99480.59
2022-09-14T03:47:39.059Z,99476.84
2022-09-14T03:51:41.274Z,99464.91
2022-09-14T03:55:43.186Z,99454.59
2022-09-14T03:59:45.403Z,99453.09
2022-09-14T04:03:47.885Z,99460.19
2022-09-14T04:07:50.187Z,99465.88
2022-09-14T04:11:52.322Z,99461.31
2022-09-14T04:16:01.475Z,99466.44
2022-09-14T04:20:04.209Z,99467.41
2022-09-14T04:24:15.892Z,99468.81
2022-09-14T04:28:20.652Z,99466.31
2022-09-14T04:32:23.322Z,99476.59
2022-09-14T04:36:28.590Z,99456.56
2022-09-14T04:40:31.317Z,99464.63
2022-09-14T04:44:33.497Z,99471.47
2022-09-14T04:48:36.373Z,99466.19
2022-09-14T04:52:38.730Z,99472.41
2022-09-14T04:56:41.600Z,99453.63
2022-09-14T05:00:43.634Z,99461.53
2022-09-14T05:04:45.954Z,99456.38
2022-09-14T05:08:49.311Z,99460.97
2022-09-14T05:12:51.664Z,99469.31
2022-09-14T05:16:53.652Z,99478.81
2022-09-14T05:20:55.798Z,99470.44
2022-09-14T05:24:57.818Z,99466.22
2022-09-14T05:29:02.138Z,99463.97
2022-09-14T05:33:04.055Z,99457.44
2022-09-14T05:37:06.485Z,99456.03
2022-09-14T05:41:12.317Z,99444.50
2022-09-14T05:45:14.488Z,99450.31
2022-09-14T05:49:16.482Z,99452.03
2022-09-14T05:53:18.595Z,99452.09
2022-09-14T05:57:20.587Z,99446.66
2022-09-14T06:01:28.405Z,99448.97
2022-09-14T06:05:31.726Z,99447.41
2022-09-14T06:09:34.184Z,99438.56
2022-09-14T06:13:37.258Z,99445.56
2022-09-14T06:17:39.796Z,99437.16
2022-09-14T06:21:43.214Z,99440.44
2022-09-14T06:25:45.438Z,99433.00
2022-09-14T06:29:52.215Z,99444.47
2022-09-14T06:33:54.522Z,99454.78
2022-09-14T06:37:56.498Z,99449.19
2022-09-14T06:41:58.798Z,99446.06
2022-09-14T06:46:07.562Z,99451.78
2022-09-14T06:50:09.976Z,99450.47
2022-09-14T06:54:14.125Z,99454.00
2022-09-14T06:58:16.644Z,99454.00
2022-09-14T07:02:18.698Z,99450.72
2022-09-14T07:06:24.214Z,99456.44
2022-09-14T07:10:28.355Z,99451.94
2022-09-14T07:14:32.437Z,99462.41
2022-09-14T07:18:35.968Z,99459.78
2022-09-14T07:22:38.286Z,99462.09
2022-09-14T07:26:44.884Z,99463.88
2022-09-14T07:30:48.618Z,99460.63
2022-09-14T07:34:50.663Z,99458.34
2022-09-14T07:38:53.868Z,99447.38
2022-09-14T07:42:57.768Z,99436.16
2022-09-14T07:47:00.405Z,99425.13
2022-09-14T07:51:07.025Z,99408.56
2022-09-14T07:55:12.194Z,99382.13
2022-09-14T07:59:35.017Z,99378.81
2022-09-14T08:03:38.844Z,99372.84
2022-09-14T08:07:40.724Z,99388.63
2022-09-14T08:11:42.845Z,99370.69
2022-09-14T08:15:45.563Z,99375.47
2022-09-14T08:19:48.334Z,99384.19
2022-09-14T08:23:50.468Z,99377.34
2022-09-14T08:27:52.618Z,99375.59
2022-09-14T08:31:54.765Z,99400.13
2022-09-14T08:35:58.331Z,99406.28
2022-09-14T08:40:00.551Z,99406.81
2022-09-14T08:44:10.975Z,99398.69
2022-09-14T08:48:49.319Z,99413.00
2022-09-14T08:52:53.419Z,99436.53
2022-09-14T08:57:13.024Z,99457.19
2022-09-14T09:01:20.537Z,99451.59
2022-09-14T09:05:44.195Z,99434.19
2022-09-14T09:09:52.412Z,99451.53
2022-09-14T09:13:56.386Z,99421.91
2022-09-14T09:18:21.629Z,99406.28
2022-09-14T09:22:26.607Z,99408.19
2022-09-14T09:26:31.858Z,99468.59
2022-09-14T09:30:33.827Z,99470.31
2022-09-14T09:34:36.640Z,99462.31
2022-09-14T09:38:47.255Z,99464.50
2022-09-14T09:43:29.007Z,99436.19
2022-09-14T09:47:42.356Z,99506.03
2022-09-14T09:51:44.854Z,99499.41
2022-09-14T09:55:51.351Z,99462.19
2022-09-14T10:00:20.160Z,99493.16
2022-09-14T10:04:28.894Z,99484.09
2022-09-14T10:08:35.217Z,99485.53
2022-09-14T10:12:39.338Z,99460.28
2022-09-14T10:16:42.184Z,99465.09
2022-09-14T10:20:53.250Z,99449.31
2022-09-14T10:24:56.982Z,99483.47
2022-09-14T10:29:25.550Z,99501.41
2022-09-14T10:33:28.861Z,99494.56
2022-09-14T10:37:42.714Z,99507.53
2022-09-14T10:41:48.235Z,99516.53
2022-09-14T10:45:53.078Z,99516.81
2022-09-14T10:50:25.390Z,99525.31
2022-09-14T10:55:00.744Z,99514.19
2022-09-14T10:59:29.636Z,99505.09
2022-09-14T11:03:56.055Z,99521.84
2022-09-14T11:08:11.759Z,99521.28
2022-09-14T11:12:31.225Z,99523.13
2022-09-14T11:17:07.359Z,99522.56
2022-09-14T11:21:32.064Z,99525.13
2022-09-14T11:26:03.758Z,99532.16
2022-09-14T11:30:20.596Z,99530.66
2022-09-14T11:34:22.897Z,99527.34
2022-09-14T11:38:29.808Z,99520.97
2022-09-14T11:42:50.778Z,99517.72
2022-09-14T11:47:09.946Z,99513.69
2022-09-14T11:51:17.585Z,99501.66
2022-09-14T11:55:19.978Z,99501.25
2022-09-14T11:59:50.461Z,99496.28
2022-09-14T12:03:57.147Z,99505.25
2022-09-14T12:08:02.285Z,99504.81
2022-09-14T12:12:08.139Z,99502.16
2022-09-14T12:16:10.563Z,99499.53
2022-09-14T12:20:37.489Z,99503.78
2022-09-14T12:24:39.926Z,99504.75
2022-09-14T12:28:50.587Z,99512.81
2022-09-14T12:32:53.598Z,99508.19
2022-09-14T12:36:59.189Z,99498.25
2022-09-14T12:41:11.204Z,99505.91
2022-09-14T12:45:49.765Z,99499.69
2022-09-14T12:50:05.286Z,99501.50
2022-09-14T12:54:18.423Z,99507.66
2022-09-14T12:58:46.716Z,99504.06
2022-09-14T13:03:00.135Z,99500.41
2022-09-14T13:07:06.398Z,99493.84
2022-09-14T13:11:09.526Z,99498.72
2022-09-14T13:15:25.709Z,99491.41
2022-09-14T13:19:30.521Z,99491.97
2022-09-14T13:23:39.001Z,99488.84
2022-09-14T13:27:41.335Z,99489.97
2022-09-14T13:31:45.395Z,99491.50
2022-09-14T13:36:02.858Z,99481.59
2022-09-14T13:40:06.938Z,99483.34
2022-09-14T13:44:09.087Z,99484.03
2022-09-14T13:48:14.959Z,99473.41
2022-09-14T13:52:22.719Z,99470.47
2022-09-14T13:56:33.261Z,99477.06
2022-09-14T14:00:58.722Z,99474.50
2022-09-14T14:05:01.561Z,99470.72
2022-09-14T14:09:11.330Z,99468.28
2022-09-14T14:13:13.558Z,99457.06
2022-09-14T14:17:37.025Z,99460.13
2022-09-14T14:21:39.418Z,99460.09
2022-09-14T14:25:46.183Z,99458.63
2022-09-14T14:29:52.421Z,99460.28
2022-09-14T14:33:56.184Z,99459.06
2022-09-14T14:37:58.850Z,99453.09
2022-09-14T14:42:02.408Z,99449.59
2022-09-14T14:46:07.022Z,99456.59
2022-09-14T14:50:20.876Z,99463.06
2022-09-14T14:54:23.852Z,99454.47
2022-09-14T14:58:26.074Z,99454.50
2022-09-14T15:02:28.315Z,99448.63
2022-09-14T15:06:30.290Z,99454.31
2022-09-14T15:10:32.684Z,99436.38
2022-09-14T15:14:35.065Z,99438.38
2022-09-14T15:18:37.225Z,99437.38
2022-09-14T15:22:42.496Z,99438.53
2022-09-14T15:26:44.877Z,99435.88
2022-09-14T15:30:46.848Z,99423.75
2022-09-14T15:34:49.101Z,99416.94
2022-09-14T15:38:51.059Z,99425.94
2022-09-14T15:42:53.716Z,99417.00
2022-09-14T15:46:56.558Z,99423.13
2022-09-14T15:51:00.799Z,99411.84
2022-09-14T15:55:04.980Z,99401.00
2022-09-14T15:59:07.791Z,99398.34
2022-09-14T16:03:10.392Z,99399.34
2022-09-14T16:07:13.201Z,99397.31
2022-09-14T16:11:15.190Z,99374.59
2022-09-14T16:15:17.612Z,99366.09
2022-09-14T16:19:19.622Z,99386.44
2022-09-14T16:23:22.190Z,99343.50
2022-09-14T16:27:24.535Z,99328.69
2022-09-14T16:31:30.275Z,99317.19
2022-09-14T16:35:32.487Z,99306.53
2022-09-14T16:39:35.196Z,99301.72
2022-09-14T16:43:37.375Z,99321.69
2022-09-14T16:47:39.966Z,99313.38
2022-09-14T16:51:42.265Z,99309.72
2022-09-14T16:55:44.406Z,99301.38
2022-09-14T16:59:46.887Z,99290.38
2022-09-14T17:03:50.963Z,99291.72
2022-09-14T17:07:52.949Z,99281.19
2022-09-14T17:11:56.523Z,99269.56
2022-09-14T17:16:02.471Z,99256.94
2022-09-14T17:20:05.429Z,99257.00
2022-09-14T17:24:08.298Z,99253.63
2022-09-14T17:28:10.650Z,99261.03
2022-09-14T17:32:15.081Z,99248.84
2022-09-14T17:36:17.330Z,99262.38
2022-09-14T17:40:19.339Z,99267.38
2022-09-14T17:44:25.831Z,99262.09
2022-09-14T17:48:31.315Z,99263.75
2022-09-14T17:52:35.397Z,99256.91
2022-09-14T17:56:37.480Z,99256.78
2022-09-14T18:00:39.727Z,99261.69
2022-09-14T18:04:44.317Z,99251.47
2022-09-14T18:08:55.263Z,99256.31
2022-09-14T18:12:57.302Z,99256.06
2022-09-14T18:16:59.983Z,99248.94
2022-09-14T18:21:02.633Z,99266.91
2022-09-14T18:25:06.704Z,99274.16
2022-09-14T18:29:08.664Z,99256.00
2022-09-14T18:33:11.106Z,99264.84
2022-09-14T18:37:13.548Z,99259.78
2022-09-14T18:41:17.281Z,99264.56
2022-09-14T18:45:19.443Z,99272.66
2022-09-14T18:49:21.875Z,99269.97
2022-09-14T18:53:23.954Z,99266.72
2022-09-14T18:57:26.767Z,99260.88
2022-09-14T19:01:29.048Z,99262.69
2022-09-14T19:05:32.010Z,99252.94
2022-09-14T19:09:34.315Z,99252.66
2022-09-14T19:13:38.093Z,99245.59
2022-09-14T19:17:40.395Z,99245.41
2022-09-14T19:21:44.036Z,99232.88
2022-09-14T19:25:46.154Z,99243.22
2022-09-14T19:29:48.422Z,99243.53
2022-09-14T19:33:51.282Z,99238.69
2022-09-14T19:37:55.058Z,99253.88
2022-09-14T19:41:57.316Z,99265.38
2022-09-14T19:46:08.072Z,99257.75
2022-09-14T19:50:10.483Z,99278.16
2022-09-14T19:54:14.475Z,99269.41
2022-09-14T19:58:16.501Z,99278.75
2022-09-14T20:02:18.851Z,99267.47
2022-09-14T20:06:26.064Z,99250.94
2022-09-14T20:10:28.336Z,99237.47
2022-09-14T20:14:30.614Z,99238.06
2022-09-14T20:18:32.831Z,99244.88
2022-09-14T20:22:34.816Z,99254.03
2022-09-14T20:26:37.062Z,99248.19
2022-09-14T20:30:38.990Z,99235.66
2022-09-14T20:34:41.405Z,99247.25
2022-09-14T20:38:49.667Z,99248.06
2022-09-14T20:42:52.411Z,99236.81
2022-09-14T20:46:54.532Z,99243.03
2022-09-14T20:50:57.817Z,99247.91
2022-09-14T20:54:59.884Z,99229.44
2022-09-14T20:59:04.674Z,99255.97
2022-09-14T21:03:06.782Z,99252.25
2022-09-14T21:07:10.979Z,99245.56
2022-09-14T21:11:20.147Z,99256.41
2022-09-14T21:15:22.708Z,99252.38
2022-09-14T21:19:27.670Z,99240.16
2022-09-14T21:23:29.898Z,99247.53
2022-09-14T21:27:32.220Z,99224.97
2022-09-14T21:31:36.602Z,99218.69
2022-09-14T21:35:38.615Z,99218.66
2022-09-14T21:39:40.809Z,99217.53
2022-09-14T21:43:42.999Z,99209.63
2022-09-14T21:47:45.170Z,99217.56
2022-09-14T21:51:51.337Z,99220.63
2022-09-14T21:56:00.899Z,99216.72
2022-09-14T22:00:09.205Z,99214.78
2022-09-14T22:04:15.256Z,99204.63
2022-09-14T22:08:17.225Z,99220.06
2022-09-14T22:24:23.104Z,99196.75
2022-09-14T22:28:25.984Z,99204.63
2022-09-14T22:32:27.897Z,99185.06
2022-09-14T22:36:30.242Z,99168.19
2022-09-14T22:40:32.451Z,99164.44
2022-09-14T22:44:34.658Z,99160.28
2022-09-14T22:48:37.326Z,99158.78
2022-09-14T22:52:39.664Z,99167.59
2022-09-14T22:56:41.822Z,99180.25
2022-09-14T23:00:44.885Z,99172.13
2022-09-14T23:04:48.698Z,99153.50
2022-09-14T23:08:50.910Z,99166.91
2022-09-14T23:12:53.113Z,99161.78
2022-09-14T23:16:55.366Z,99163.72
2022-09-14T23:20:57.325Z,99179.84
2022-09-14T23:24:59.485Z,99152.75
2022-09-14T23:29:05.140Z,99145.50
2022-09-14T23:33:07.361Z,99152.59
2022-09-14T23:37:09.378Z,99156.63
2022-09-14T23:41:11.720Z,99172.09
2022-09-14T23:45:14.685Z,99169.91
2022-09-14T23:49:17.320Z,99183.50
2022-09-14T23:53:19.225Z,99181.13
2022-09-14T23:57:21.784Z,99178.47
